• Join FlightAware (Why Join?)
  • Login
  • US Flag 
01:47AM EDT


 

Airport Tracker/Info


-or-


 

Live Flight TrackerFlight Track Log ✈ EGF3985 ✈ 23-Apr-2013 ✈ KJFK - KCVG

Flight Track Log - Related Links

Times and Time Zones

All times are in EDT time to prevent confusion due to time zone crossing. See the EGF3985 flight status page for this flight to view local times or setup timezone preferences in your user account.

Time Position Orientation Groundspeed Altitude Reporting Facility
EDT Latitude Longitude Course Direction KTS MPH feet Rate Location/Type
04:21PM 40.6378 -73.8614 237° Southwest 201 231 1,900  Level New York Center
04:21PM 40.6167 -73.9000 234° Southwest 232 267 3,600 2,460 Climbing New York TRACON
04:22PM 40.4428 -74.0859 229° Southwest  Level FlightAware Approximate
04:22PM 40.5667 -73.9333 207° Southwest 263 303 5,600  Level New York TRACON
04:23PM 40.3740 -74.1890 229° Southwest  Level FlightAware Approximate
04:23PM 40.4833 -74.0000 211° Southwest 282 325 8,200  Level New York TRACON
04:24PM 40.3090 -74.2962 232° Southwest  Level FlightAware Approximate
04:24PM 40.4167 -74.0500 210° Southwest 288 331 10,700  Level New York TRACON
04:25PM 40.2486 -74.4024 232° Southwest  Level FlightAware Approximate
04:26PM 40.1998 -74.5170 237° Southwest  Level FlightAware Approximate
04:27PM 40.3050 -74.2844 238° Southwest 337 388 13,600  Level New York Center
04:28PM 40.2517 -74.3989 239° Southwest 365 420 14,900 1,080 Climbing New York Center
04:29PM 40.2094 -74.4864 238° Southwest 370 426 15,800 1,080 Climbing New York Center
04:30PM 40.1900 -74.6319 260° West 356 410 17,100 1,020 Climbing New York Center
04:31PM 40.1836 -74.7619 266° West 366 421 17,900 960 Climbing New York Center
04:32PM 40.1725 -74.9000 264° West 382 440 19,100 1,140 Climbing New York Center
04:33PM 40.1614 -75.0378 264° West 382 440 20,300 1,140 Climbing New York Center
04:34PM 40.1500 -75.1783 264° West 382 440 21,500 840 Climbing New York Center
04:35PM 40.1383 -75.3186 264° West 387 445 22,000 240 Climbing New York Center
04:36PM 40.1256 -75.4864 264° West 408 470 22,000 -60 Level New York Center
04:37PM 40.1111 -75.6372 263° West 422 486 21,900  Descending New York Center
04:38PM 40.0697 -75.7808 249° West 422 486 22,000  Climbing New York Center
04:39PM 40.0261 -75.9214 248° West 422 486 22,000  Level New York Center
04:40PM 39.9781 -76.0642 246° West 427 491 22,000  Level New York Center
04:41PM 39.9319 -76.2069 247° West 427 491 22,000  Level New York Center
04:42PM 39.8864 -76.3361 245° Southwest 432 497 22,000  Level New York Center
04:43PM 39.8397 -76.4811 247° West 432 497 22,000  Level New York Center
04:44PM 39.7953 -76.6233 248° West 432 497 22,000  Level New York Center
04:44PM 39.7453 -76.7708 246° West 432 497 22,000  Level Washington Center
04:45PM 39.6981 -76.9103 246° West 437 503 22,000  Level Washington Center
04:46PM 39.6506 -77.0522 247° West 437 503 22,000  Level Washington Center
04:47PM 39.6050 -77.1942 247° West 437 503 22,000  Level Washington Center
04:48PM 39.5594 -77.3358 247° West 432 497 22,000  Level Washington Center
04:49PM 39.5094 -77.4744 245° Southwest 432 497 22,000  Level Washington Center
04:50PM 39.4653 -77.6158 248° West 432 497 22,000  Level Washington Center
04:51PM 39.4192 -77.7542 247° West 432 497 22,000  Level Washington Center
04:52PM 39.3731 -77.8897 246° West 432 497 22,000  Level Washington Center
04:53PM 39.3228 -78.0114 242° Southwest 427 491 22,000  Level Washington Center
04:54PM 39.2697 -78.1464 243° Southwest 427 491 22,000  Level Washington Center
04:55PM 39.2128 -78.2839 242° Southwest 422 486 22,000  Level Washington Center
04:56PM 39.1800 -78.4300 254° West 422 486 22,000  Level Washington Center
04:57PM 39.1514 -78.5786 256° West 427 491 22,000  Level Washington Center
04:58PM 39.1206 -78.7325 256° West 437 503 22,000  Level Washington Center
04:59PM 39.0894 -78.8811 255° West 437 503 22,000  Level Washington Center
05:00PM 39.0558 -79.0344 254° West 437 503 22,000  Level Washington Center
05:01PM 39.0244 -79.1853 255° West 442 509 22,000  Level Washington Center
05:02PM 38.9947 -79.3389 256° West 442 509 22,000  Level Washington Center
05:03PM 38.9628 -79.4894 255° West 447 514 22,000  Level Washington Center
05:04PM 38.9286 -79.6425 254° West 452 520 22,000  Level Washington Center
05:05PM 38.8964 -79.7900 254° West 447 514 22,000  Level Washington Center
05:06PM 38.8639 -79.9403 255° West 447 514 22,000  Level Washington Center
05:09PM 38.8164 -80.2803 260° West 431 496 22,000  Level Indianapolis Center
05:10PM 38.8111 -80.4331 268° West 429 494 22,000  Level Indianapolis Center
05:11PM 38.7989 -80.5836 264° West 429 494 22,000  Level Indianapolis Center
05:12PM 38.7778 -80.7353 260° West 431 496 22,000  Level Indianapolis Center
05:13PM 38.7575 -80.8869 260° West 432 497 22,000  Level Indianapolis Center
05:14PM 38.7361 -81.0383 260° West 432 497 22,000  Level Indianapolis Center
05:15PM 38.7106 -81.2169 260° West 428 493 22,000 -420 Level Indianapolis Center
05:16PM 38.6897 -81.3611 260° West 414 476 21,200 -960 Descending Indianapolis Center
05:17PM 38.6683 -81.5008 259° West 417 480 20,100 -600 Descending Indianapolis Center
05:18PM 38.6461 -81.6608 260° West 406 467 20,000 -60 Descending Indianapolis Center
05:19PM 38.6261 -81.8000 260° West 399 459 20,000  Level Indianapolis Center
05:20PM 38.6050 -81.9408 259° West 402 463 20,000  Level Indianapolis Center
05:21PM 38.5839 -82.0819 259° West 403 464 20,000  Level Indianapolis Center
05:22PM 38.5631 -82.2186 259° West 393 452 20,000  Level Indianapolis Center
05:23PM 38.5425 -82.3539 259° West 387 445 20,000  Level Indianapolis Center
05:24PM 38.5175 -82.5161 259° West 391 450 20,000  Level Indianapolis Center
05:25PM 38.4978 -82.6531 260° West 393 452 20,000 -600 Level Indianapolis Center
05:26PM 38.5114 -82.7903 277° West 389 448 18,800 -1,260 Descending Indianapolis Center
05:27PM 38.5242 -82.9206 277° West 372 428 17,400 -1,440 Descending Indianapolis Center
05:28PM 38.5356 -83.0425 277° West 352 405 15,900 -1,440 Descending Indianapolis Center
05:29PM 38.5472 -83.1711 277° West 360 414 14,500 -1,260 Descending Indianapolis Center
05:30PM 38.5614 -83.3203 277° West 362 417 13,300 -1,260 Descending Indianapolis Center
05:31PM 38.5719 -83.4336 277° West 330 380 11,900 -1,200 Descending Indianapolis Center
05:32PM 38.5811 -83.5461 276° West 321 369 10,900 -900 Descending Indianapolis Center
05:33PM 38.5933 -83.6656 277° West 335 386 10,100 -420 Descending Indianapolis Center
05:35PM 38.6028 -83.7842 276° West 336 387 10,100 -60 Level Indianapolis Center
05:36PM 38.6156 -83.9208 277° West 332 382 10,000 -60 Descending Indianapolis Center
05:37PM 38.6608 -84.0136 302° West 344 396 10,000  Level Indianapolis Center
05:38PM 38.7147 -84.1150 304° West 341 392 10,000  Level Indianapolis Center
05:39PM 38.7672 -84.2169 303° West 340 391 10,000  Level Indianapolis Center
05:40PM 38.8272 -84.3350 303° West 335 386 10,000  Level Indianapolis Center
05:41PM 38.8783 -84.4319 304° West 323 372 10,000 -540 Level Indianapolis Center
05:41PM 38.9000 -84.4833 298° West 254 292 9,200 -780 Descending Cincinnati TRACON
05:42PM 38.9667 -84.5333 330° Northwest 288 331 8,800 -1,020 Descending Cincinnati TRACON
05:43PM 39.0167 -84.5333 360° North 286 329 7,400 -1,740 Descending Cincinnati TRACON
05:44PM 39.1000 -84.5333 360° North 278 320 5,700 -1,560 Descending Cincinnati TRACON
05:45PM 39.1475 -84.5406 353° North 280 322 4,700 -1,200 Descending Indianapolis Center
05:46PM 39.1986 -84.5808 329° Northwest 258 297 3,600 -840 Descending Indianapolis Center
05:47PM 39.2000 -84.6667 271° West 179 206 3,000 -540 Descending Cincinnati TRACON